createdAt,value
2019-05-03T00:00:24.204Z,9.38
2019-05-03T00:01:24.210Z,9.40
2019-05-03T00:02:24.182Z,9.39
2019-05-03T00:03:24.224Z,9.40
2019-05-03T00:04:24.173Z,9.45
2019-05-03T00:05:24.163Z,9.40
2019-05-03T00:06:24.171Z,9.42
2019-05-03T00:07:24.148Z,9.38
2019-05-03T00:08:24.118Z,9.45
2019-05-03T00:09:24.108Z,9.46
2019-05-03T00:10:24.102Z,9.42
2019-05-03T00:11:24.107Z,9.43
2019-05-03T00:12:24.082Z,9.38
2019-05-03T00:13:24.075Z,9.46
2019-05-03T00:14:24.052Z,9.38
2019-05-03T00:15:24.047Z,9.35
2019-05-03T00:16:24.040Z,9.39
2019-05-03T00:17:24.046Z,9.38
2019-05-03T00:18:24.022Z,9.34
2019-05-03T00:19:24.007Z,9.42
2019-05-03T00:20:23.990Z,9.45
2019-05-03T00:21:23.990Z,9.40
2019-05-03T00:22:23.997Z,9.39
2019-05-03T00:23:23.958Z,9.40
2019-05-03T00:24:23.949Z,9.38
2019-05-03T00:25:23.939Z,9.49
2019-05-03T00:26:23.934Z,9.49
2019-05-03T00:27:23.946Z,9.49
2019-05-03T00:28:23.908Z,9.45
2019-05-03T00:29:23.893Z,9.45
2019-05-03T00:30:23.887Z,9.50
2019-05-03T00:31:23.872Z,9.50
2019-05-03T00:32:23.889Z,9.52
2019-05-03T00:33:23.859Z,9.42
2019-05-03T00:34:23.866Z,9.52
2019-05-03T00:35:23.847Z,9.46
2019-05-03T00:36:23.819Z,9.45
2019-05-03T00:37:23.829Z,9.40
2019-05-03T00:38:23.842Z,9.42
2019-05-03T00:39:23.811Z,9.39
2019-05-03T00:40:23.785Z,9.40
2019-05-03T00:41:23.788Z,9.39
2019-05-03T00:42:23.777Z,9.53
2019-05-03T00:43:23.747Z,9.49
2019-05-03T00:44:23.733Z,9.50
2019-05-03T00:45:23.734Z,9.43
2019-05-03T00:46:23.712Z,9.38
2019-05-03T00:47:23.723Z,9.39
2019-05-03T00:48:23.692Z,9.43
2019-05-03T00:49:23.682Z,9.48
2019-05-03T00:50:23.679Z,9.38
2019-05-03T00:51:23.664Z,9.46
2019-05-03T00:52:23.665Z,9.48
2019-05-03T00:53:23.638Z,9.39
2019-05-03T00:54:23.627Z,9.45
2019-05-03T00:55:23.618Z,9.43
2019-05-03T00:56:23.609Z,9.45
2019-05-03T00:57:23.627Z,9.57
2019-05-03T00:58:23.586Z,9.50
2019-05-03T00:59:23.584Z,9.48
2019-05-03T01:00:23.563Z,9.45
2019-05-03T01:01:23.552Z,9.53
2019-05-03T01:02:26.218Z,9.39
2019-05-03T01:03:23.537Z,9.50
2019-05-03T01:04:23.544Z,9.40
2019-05-03T01:05:23.516Z,9.46
2019-05-03T01:06:23.503Z,9.48
2019-05-03T01:07:23.490Z,9.43
2019-05-03T01:08:23.500Z,9.46
2019-05-03T01:09:23.489Z,9.48
2019-05-03T01:10:23.462Z,9.46
2019-05-03T01:11:23.448Z,9.53
2019-05-03T01:12:23.439Z,9.52
2019-05-03T01:13:23.471Z,9.42
2019-05-03T01:14:23.416Z,9.49
2019-05-03T01:15:23.409Z,9.46
2019-05-03T01:16:23.400Z,9.42
2019-05-03T01:17:23.392Z,9.42
2019-05-03T01:18:23.535Z,9.42
2019-05-03T01:19:23.377Z,9.50
2019-05-03T01:20:23.355Z,9.53
2019-05-03T01:21:23.341Z,9.48
2019-05-03T01:22:23.332Z,9.50
2019-05-03T01:23:23.368Z,9.52
2019-05-03T01:24:23.331Z,9.46
2019-05-03T01:25:32.230Z,9.43
2019-05-03T01:26:24.288Z,9.50
2019-05-03T01:27:23.286Z,9.42
2019-05-03T01:28:23.267Z,9.53
2019-05-03T01:29:23.280Z,9.42
2019-05-03T01:30:23.256Z,9.53
2019-05-03T01:31:23.236Z,9.50
2019-05-03T01:32:23.227Z,9.49
2019-05-03T01:33:23.214Z,9.42
2019-05-03T01:34:23.233Z,9.49
2019-05-03T01:35:23.198Z,9.38
2019-05-03T01:36:23.182Z,9.50
2019-05-03T01:37:23.170Z,9.49
2019-05-03T01:38:23.165Z,9.39
2019-05-03T01:39:23.175Z,9.48
2019-05-03T01:40:23.144Z,9.49
2019-05-03T01:41:23.131Z,9.40
2019-05-03T01:42:23.131Z,9.42
2019-05-03T01:43:23.166Z,9.49
2019-05-03T01:44:23.125Z,9.49
2019-05-03T01:45:23.110Z,9.52
2019-05-03T01:46:23.157Z,9.50
2019-05-03T01:47:23.065Z,9.50
2019-05-03T01:48:23.058Z,9.45
2019-05-03T01:49:23.067Z,9.49
2019-05-03T01:50:23.055Z,9.45
2019-05-03T01:51:23.029Z,9.50
2019-05-03T01:52:23.027Z,9.46
2019-05-03T01:53:23.011Z,9.49
2019-05-03T01:54:23.015Z,9.43
2019-05-03T01:55:22.986Z,9.39
2019-05-03T01:56:22.971Z,9.42
2019-05-03T01:57:22.965Z,9.42
2019-05-03T01:58:22.949Z,9.38
2019-05-03T01:59:22.936Z,9.42
2019-05-03T02:00:23.528Z,9.45
2019-05-03T02:01:22.916Z,9.38
2019-05-03T02:02:23.110Z,9.45
2019-05-03T02:03:22.935Z,9.42
2019-05-03T02:04:22.884Z,9.52
2019-05-03T02:05:22.912Z,9.46
2019-05-03T02:06:22.864Z,9.42
2019-05-03T02:07:22.863Z,9.52
2019-05-03T02:08:22.845Z,9.56
2019-05-03T02:09:22.833Z,9.53
2019-05-03T02:10:22.856Z,9.50
2019-05-03T02:11:22.819Z,9.46
2019-05-03T02:12:22.802Z,9.50
2019-05-03T02:13:23.000Z,9.50
2019-05-03T02:14:22.779Z,9.48
2019-05-03T02:15:30.371Z,9.52
2019-05-03T02:16:22.766Z,9.56
2019-05-03T02:17:31.888Z,9.49
2019-05-03T02:18:22.741Z,9.52
2019-05-03T02:19:22.740Z,9.38
2019-05-03T02:20:22.744Z,9.42
2019-05-03T02:21:22.745Z,9.48
2019-05-03T02:22:22.722Z,9.45
2019-05-03T02:23:22.688Z,9.38
2019-05-03T02:24:22.729Z,9.40
2019-05-03T02:25:22.666Z,9.40
2019-05-03T02:26:22.675Z,9.45
2019-05-03T02:27:22.647Z,9.53
2019-05-03T02:28:22.645Z,9.45
2019-05-03T02:29:22.666Z,9.50
2019-05-03T02:30:24.926Z,9.53
2019-05-03T02:31:23.147Z,9.52
2019-05-03T02:32:23.343Z,9.57
2019-05-03T02:33:23.319Z,9.53
2019-05-03T02:34:23.904Z,9.53
2019-05-03T02:35:22.796Z,9.52
2019-05-03T02:36:23.153Z,9.50
2019-05-03T02:37:22.585Z,9.53
2019-05-03T02:38:23.400Z,9.50
2019-05-03T02:39:23.045Z,9.49
2019-05-03T02:40:24.540Z,9.40
2019-05-03T02:41:22.827Z,9.39
2019-05-03T02:42:22.511Z,9.43
2019-05-03T02:43:25.622Z,9.39
2019-05-03T02:44:22.485Z,9.42
2019-05-03T02:45:22.465Z,9.43
2019-05-03T02:46:25.130Z,9.40
2019-05-03T02:47:22.459Z,9.38
2019-05-03T02:48:25.354Z,9.34
2019-05-03T02:49:22.411Z,9.34
2019-05-03T02:50:22.435Z,9.35
2019-05-03T02:51:22.445Z,9.35
2019-05-03T02:52:22.380Z,9.27
2019-05-03T02:53:22.428Z,9.32
2019-05-03T02:54:22.359Z,9.38
2019-05-03T02:55:22.350Z,9.40
2019-05-03T02:56:23.357Z,9.34
2019-05-03T02:57:22.341Z,9.39
2019-05-03T02:58:25.144Z,9.39
2019-05-03T02:59:22.304Z,9.30
2019-05-03T03:00:25.305Z,9.35
2019-05-03T03:01:22.284Z,9.38
2019-05-03T03:02:22.313Z,9.39
2019-05-03T03:03:22.264Z,9.34
2019-05-03T03:04:22.256Z,9.42
2019-05-03T03:05:22.251Z,9.35
2019-05-03T03:06:22.239Z,9.34
2019-05-03T03:07:22.274Z,9.35
2019-05-03T03:08:22.213Z,9.31
2019-05-03T03:09:25.232Z,9.28
2019-05-03T03:10:22.194Z,9.28
2019-05-03T03:11:22.180Z,9.25
2019-05-03T03:12:22.205Z,9.24
2019-05-03T03:13:22.176Z,9.27
2019-05-03T03:14:22.161Z,9.30
2019-05-03T03:15:22.137Z,9.24
2019-05-03T03:16:22.130Z,9.30
2019-05-03T03:17:22.126Z,9.28
2019-05-03T03:18:22.138Z,9.23
2019-05-03T03:19:22.093Z,9.28
2019-05-03T03:20:22.089Z,9.25
2019-05-03T03:21:22.083Z,9.25
2019-05-03T03:22:22.098Z,9.25
2019-05-03T03:23:22.072Z,9.27
2019-05-03T03:24:22.079Z,9.23
2019-05-03T03:25:22.058Z,9.20
2019-05-03T03:26:34.473Z,9.25
2019-05-03T03:27:25.546Z,9.24
2019-05-03T03:28:22.019Z,9.20
2019-05-03T03:29:21.998Z,9.20
2019-05-03T03:30:21.996Z,9.30
2019-05-03T03:31:21.965Z,9.20
2019-05-03T03:32:21.969Z,9.20
2019-05-03T03:33:22.002Z,9.16
2019-05-03T03:34:21.941Z,9.20
2019-05-03T03:35:22.571Z,9.18
2019-05-03T03:36:45.986Z,9.18
2019-05-03T03:37:25.818Z,9.12
2019-05-03T03:38:22.004Z,9.15
2019-05-03T03:39:21.891Z,9.12
2019-05-03T03:40:21.873Z,9.12
2019-05-03T03:41:21.873Z,9.01
2019-05-03T03:42:21.861Z,9.05
2019-05-03T03:43:21.888Z,8.93
2019-05-03T03:44:21.859Z,9.04
2019-05-03T03:45:21.819Z,9.02
2019-05-03T03:46:21.817Z,9.01
2019-05-03T03:47:21.798Z,9.02
2019-05-03T03:48:21.796Z,8.79
2019-05-03T03:49:21.804Z,8.86
2019-05-03T03:50:21.788Z,8.96
2019-05-03T03:51:21.750Z,8.91
2019-05-03T03:52:21.751Z,8.91
2019-05-03T03:53:21.741Z,8.87
2019-05-03T03:54:21.749Z,8.86
2019-05-03T03:55:21.748Z,8.90
2019-05-03T03:56:21.699Z,8.97
2019-05-03T03:57:21.687Z,8.91
2019-05-03T03:58:23.103Z,8.87
2019-05-03T03:59:21.699Z,8.81
2019-05-03T04:00:21.699Z,8.84
2019-05-03T04:01:21.670Z,8.73
2019-05-03T04:02:21.639Z,8.78
2019-05-03T04:03:21.623Z,8.71
2019-05-03T04:04:21.639Z,8.66
2019-05-03T04:05:21.608Z,8.69
2019-05-03T04:06:21.617Z,8.65
2019-05-03T04:07:21.581Z,8.57
2019-05-03T04:08:21.574Z,8.62
2019-05-03T04:09:21.559Z,8.57
2019-05-03T04:10:21.581Z,8.63
2019-05-03T04:11:21.551Z,8.60
2019-05-03T04:12:21.600Z,8.55
2019-05-03T04:13:21.522Z,8.57
2019-05-03T04:14:21.543Z,8.51
2019-05-03T04:15:21.542Z,8.48
2019-05-03T04:16:21.511Z,8.47
2019-05-03T04:17:21.487Z,8.45
2019-05-03T04:18:21.486Z,8.48
2019-05-03T04:19:21.459Z,8.47
2019-05-03T04:20:21.464Z,8.42
2019-05-03T04:21:21.436Z,8.39
2019-05-03T04:22:21.460Z,8.36
2019-05-03T04:23:21.416Z,8.36
2019-05-03T04:24:21.405Z,8.35
2019-05-03T04:25:21.437Z,8.21
2019-05-03T04:26:21.382Z,8.20
2019-05-03T04:27:24.432Z,8.12
2019-05-03T04:28:22.358Z,8.11
2019-05-03T04:29:21.349Z,8.14
2019-05-03T04:30:21.345Z,8.08
2019-05-03T04:31:21.389Z,8.14
2019-05-03T04:32:24.859Z,8.21
2019-05-03T04:33:22.308Z,8.14
2019-05-03T04:34:21.323Z,8.11
2019-05-03T04:35:21.288Z,8.15
2019-05-03T04:36:21.298Z,8.17
2019-05-03T04:37:21.278Z,8.14
2019-05-03T04:38:21.260Z,8.15
2019-05-03T04:39:21.269Z,8.26
2019-05-03T04:40:21.234Z,8.25
2019-05-03T04:41:21.251Z,8.25
2019-05-03T04:42:21.213Z,8.32
2019-05-03T04:43:21.239Z,8.33
2019-05-03T04:44:21.193Z,8.32
2019-05-03T04:45:21.197Z,8.33
2019-05-03T04:46:21.166Z,8.35
2019-05-03T04:47:21.193Z,8.37
2019-05-03T04:48:21.157Z,8.39
2019-05-03T04:49:21.142Z,8.39
2019-05-03T04:50:21.133Z,8.37
2019-05-03T04:51:21.114Z,8.42
2019-05-03T04:52:21.155Z,8.42
2019-05-03T04:53:21.107Z,8.48
2019-05-03T04:54:21.125Z,8.44
2019-05-03T04:55:21.132Z,8.57
2019-05-03T04:56:21.074Z,8.60
2019-05-03T04:57:34.791Z,8.55
2019-05-03T04:58:22.052Z,8.53
2019-05-03T04:59:21.044Z,8.55
2019-05-03T05:00:21.020Z,8.55
2019-05-03T05:01:21.007Z,8.54
2019-05-03T05:02:21.018Z,8.55
2019-05-03T05:03:21.017Z,8.58
2019-05-03T05:04:20.987Z,8.51
2019-05-03T05:05:20.968Z,8.58
2019-05-03T05:06:20.990Z,8.55
2019-05-03T05:07:20.959Z,8.63
2019-05-03T05:08:20.957Z,8.69
2019-05-03T05:09:20.932Z,8.58
2019-05-03T05:10:20.914Z,8.63
2019-05-03T05:11:20.905Z,8.68
2019-05-03T05:12:20.905Z,8.66
2019-05-03T05:13:20.966Z,8.71
2019-05-03T05:14:20.872Z,8.69
2019-05-03T05:15:20.870Z,8.73
2019-05-03T05:16:20.851Z,8.68
2019-05-03T05:17:20.841Z,8.78
2019-05-03T05:18:20.867Z,8.72
2019-05-03T05:19:20.825Z,8.78
2019-05-03T05:20:20.812Z,8.81
2019-05-03T05:21:20.802Z,8.81
2019-05-03T05:22:20.792Z,8.83
2019-05-03T05:23:20.830Z,8.76
2019-05-03T05:24:20.835Z,8.88
2019-05-03T05:25:20.801Z,8.81
2019-05-03T05:26:20.748Z,8.84
2019-05-03T05:27:20.756Z,8.81
2019-05-03T05:28:20.746Z,8.78
2019-05-03T05:29:20.727Z,8.84
2019-05-03T05:30:20.703Z,8.84
2019-05-03T05:31:20.695Z,8.90
2019-05-03T05:32:20.691Z,8.87
2019-05-03T05:33:20.680Z,8.87
2019-05-03T05:34:20.683Z,8.83
2019-05-03T05:35:20.651Z,8.81
2019-05-03T05:36:20.639Z,8.81
2019-05-03T05:37:20.629Z,8.78
2019-05-03T05:38:20.624Z,8.87
2019-05-03T05:39:20.630Z,8.78
2019-05-03T05:40:20.599Z,8.83
2019-05-03T05:41:20.594Z,8.83
2019-05-03T05:42:20.584Z,8.86
2019-05-03T05:43:20.601Z,8.87
2019-05-03T05:44:20.572Z,8.90
2019-05-03T05:45:20.541Z,8.90
2019-05-03T05:46:20.539Z,8.88
2019-05-03T05:47:20.522Z,8.87
2019-05-03T05:48:20.511Z,8.94
2019-05-03T05:49:20.524Z,8.97
2019-05-03T05:50:20.492Z,9.06
2019-05-03T05:51:20.481Z,9.09
2019-05-03T05:52:20.482Z,8.96
2019-05-03T05:53:20.457Z,8.99
2019-05-03T05:54:20.491Z,9.01
2019-05-03T05:55:20.454Z,9.12
2019-05-03T05:56:20.425Z,9.09
2019-05-03T05:57:20.416Z,9.02
2019-05-03T05:58:20.404Z,9.12
2019-05-03T05:59:20.453Z,9.13
2019-05-03T06:00:20.396Z,9.05
2019-05-03T06:01:20.376Z,9.21
2019-05-03T06:02:20.372Z,9.25
2019-05-03T06:03:20.354Z,9.20
2019-05-03T06:04:20.366Z,9.18
2019-05-03T06:05:20.333Z,9.24
2019-05-03T06:06:20.329Z,9.20
2019-05-03T06:07:20.315Z,9.30
2019-05-03T06:08:20.317Z,9.30
2019-05-03T06:09:20.318Z,9.27
2019-05-03T06:10:20.294Z,9.31
2019-05-03T06:11:20.271Z,9.32
2019-05-03T06:12:20.262Z,9.38
2019-05-03T06:13:20.248Z,9.42
2019-05-03T06:14:20.265Z,9.42
2019-05-03T06:15:20.225Z,9.46
2019-05-03T06:16:20.218Z,9.49
2019-05-03T06:17:20.229Z,9.50
2019-05-03T06:18:20.207Z,9.53
2019-05-03T06:19:20.184Z,9.53
2019-05-03T06:20:20.201Z,9.53
2019-05-03T06:21:20.165Z,9.53
2019-05-03T06:22:20.155Z,9.48
2019-05-03T06:23:20.149Z,9.60
2019-05-03T06:24:20.129Z,9.57
2019-05-03T06:25:20.145Z,9.52
2019-05-03T06:26:20.111Z,9.58
2019-05-03T06:27:20.099Z,9.58
2019-05-03T06:28:21.021Z,9.50
2019-05-03T06:29:20.075Z,9.53
2019-05-03T06:30:20.088Z,9.56
2019-05-03T06:31:22.709Z,9.48
2019-05-03T06:32:20.047Z,9.58
2019-05-03T06:33:20.035Z,9.56
2019-05-03T06:34:20.042Z,9.63
2019-05-03T06:35:20.063Z,9.64
2019-05-03T06:36:20.002Z,9.61
2019-05-03T06:37:19.995Z,9.61
2019-05-03T06:38:19.980Z,9.76
2019-05-03T06:39:19.975Z,9.83
2019-05-03T06:40:19.983Z,9.79
2019-05-03T06:41:19.969Z,9.75
2019-05-03T06:42:22.830Z,9.82
2019-05-03T06:43:19.929Z,9.79
2019-05-03T06:44:26.047Z,9.75
2019-05-03T06:45:20.917Z,9.76
2019-05-03T06:46:23.594Z,9.79
2019-05-03T06:47:20.889Z,9.75
2019-05-03T06:48:22.402Z,9.79
2019-05-03T06:49:20.868Z,9.78
2019-05-03T06:50:27.554Z,9.68
2019-05-03T06:51:20.865Z,9.79
2019-05-03T06:52:24.802Z,9.81
2019-05-03T06:53:20.820Z,9.70
2019-05-03T06:54:20.616Z,9.78
2019-05-03T06:55:20.825Z,9.78
2019-05-03T06:56:24.978Z,9.86
2019-05-03T06:57:20.788Z,9.94
2019-05-03T06:58:30.345Z,9.97
2019-05-03T06:59:20.769Z,10.01
2019-05-03T07:00:19.750Z,10.07
2019-05-03T07:01:19.737Z,10.12
2019-05-03T07:02:19.746Z,10.07
2019-05-03T07:03:19.728Z,10.17
2019-05-03T07:04:19.704Z,10.14
2019-05-03T07:05:19.698Z,10.19
2019-05-03T07:06:32.965Z,10.18
2019-05-03T07:07:20.695Z,10.28
2019-05-03T07:08:19.685Z,10.36
2019-05-03T07:09:19.661Z,10.43
2019-05-03T07:10:19.644Z,10.37
2019-05-03T07:11:19.633Z,10.34
2019-05-03T07:12:19.650Z,10.26
2019-05-03T07:13:27.186Z,10.25
2019-05-03T07:14:19.598Z,10.26
2019-05-03T07:15:27.135Z,10.21
2019-05-03T07:16:19.596Z,10.32
2019-05-03T07:17:19.566Z,10.26
2019-05-03T07:18:19.580Z,10.37
2019-05-03T07:19:19.547Z,10.42
2019-05-03T07:20:19.539Z,10.55
2019-05-03T07:21:19.525Z,10.58
2019-05-03T07:22:19.525Z,10.65
2019-05-03T07:23:19.523Z,10.65
2019-05-03T07:24:19.493Z,10.71
2019-05-03T07:25:19.482Z,10.89
2019-05-03T07:26:19.472Z,10.92
2019-05-03T07:27:19.474Z,10.95
2019-05-03T07:28:19.468Z,11.03
2019-05-03T07:29:19.441Z,11.06
2019-05-03T07:30:19.432Z,11.09
2019-05-03T07:31:19.419Z,11.11
2019-05-03T07:32:19.410Z,11.16
2019-05-03T07:33:19.422Z,11.20
2019-05-03T07:34:19.387Z,11.09
2019-05-03T07:35:19.386Z,11.16
2019-05-03T07:36:19.368Z,11.11
2019-05-03T07:37:19.363Z,11.14
2019-05-03T07:38:19.371Z,11.13
2019-05-03T07:39:19.369Z,11.19
2019-05-03T07:40:19.329Z,11.21
2019-05-03T07:41:19.319Z,11.24
2019-05-03T07:42:19.351Z,11.21
2019-05-03T07:43:19.370Z,11.21
2019-05-03T07:44:19.287Z,11.19
2019-05-03T07:45:19.280Z,11.19
2019-05-03T07:46:19.267Z,11.16
2019-05-03T07:47:19.284Z,11.20
2019-05-03T07:48:19.271Z,11.17
2019-05-03T07:49:19.257Z,10.96
2019-05-03T07:50:19.226Z,10.91
2019-05-03T07:51:19.217Z,10.83
2019-05-03T07:52:19.257Z,10.80
2019-05-03T07:53:19.216Z,10.88
2019-05-03T07:54:19.176Z,10.95
2019-05-03T07:55:19.166Z,10.94
2019-05-03T07:56:19.161Z,10.95
2019-05-03T07:57:19.158Z,10.96
2019-05-03T07:58:19.135Z,10.99
2019-05-03T07:59:19.142Z,10.92
2019-05-03T08:00:19.110Z,10.98
2019-05-03T08:01:19.105Z,11.11
2019-05-03T08:02:19.093Z,11.10
2019-05-03T08:03:19.108Z,11.11
2019-05-03T08:04:19.110Z,11.17
2019-05-03T08:05:19.060Z,11.16
2019-05-03T08:06:19.047Z,11.28
2019-05-03T08:07:22.388Z,11.28
2019-05-03T08:08:19.030Z,11.25
2019-05-03T08:09:19.035Z,11.39
2019-05-03T08:10:19.022Z,11.35
2019-05-03T08:11:19.001Z,11.29
2019-05-03T08:12:18.988Z,11.35
2019-05-03T08:13:18.973Z,11.35
2019-05-03T08:14:18.984Z,11.36
2019-05-03T08:15:18.952Z,11.39
2019-05-03T08:16:18.940Z,11.38
2019-05-03T08:17:18.930Z,11.24
2019-05-03T08:18:18.929Z,11.36
2019-05-03T08:19:18.929Z,11.28
2019-05-03T08:20:18.897Z,11.28
2019-05-03T08:21:18.892Z,11.29
2019-05-03T08:22:18.880Z,11.17
2019-05-03T08:23:27.463Z,11.17
2019-05-03T08:24:19.881Z,11.19
2019-05-03T08:25:18.852Z,11.27
2019-05-03T08:26:18.837Z,11.28
2019-05-03T08:27:18.829Z,11.28
2019-05-03T08:28:18.815Z,11.24
2019-05-03T08:29:19.660Z,11.31
2019-05-03T08:30:18.798Z,11.36
2019-05-03T08:31:18.783Z,11.36
2019-05-03T08:32:18.775Z,11.31
2019-05-03T08:33:18.758Z,11.38
2019-05-03T08:34:18.776Z,11.44
2019-05-03T08:35:18.757Z,11.49
2019-05-03T08:36:18.733Z,11.44
2019-05-03T08:37:18.717Z,11.52
2019-05-03T08:38:18.706Z,11.59
2019-05-03T08:39:18.714Z,11.65
2019-05-03T08:40:18.688Z,11.72
2019-05-03T08:41:18.688Z,11.71
2019-05-03T08:42:18.667Z,11.61
2019-05-03T08:43:18.684Z,11.74
2019-05-03T08:44:18.684Z,11.71
2019-05-03T08:45:18.643Z,11.72
2019-05-03T08:46:18.627Z,11.75
2019-05-03T08:47:18.617Z,11.74
2019-05-03T08:48:18.599Z,11.85
2019-05-03T08:49:18.596Z,11.82
2019-05-03T08:50:21.348Z,11.83
2019-05-03T08:51:18.590Z,11.78
2019-05-03T08:52:18.555Z,11.90
2019-05-03T08:53:18.551Z,11.93
2019-05-03T08:54:18.536Z,11.89
2019-05-03T08:55:18.548Z,11.93
2019-05-03T08:56:18.522Z,11.93
2019-05-03T08:57:18.556Z,11.80
2019-05-03T08:58:18.497Z,11.82
2019-05-03T08:59:28.788Z,11.82
2019-05-03T09:01:28.232Z,11.96
2019-05-03T09:02:28.202Z,11.90
2019-05-03T09:03:28.192Z,11.93
2019-05-03T09:04:37.205Z,11.94
2019-05-03T09:05:29.194Z,11.94
2019-05-03T09:06:28.159Z,12.11
2019-05-03T09:07:28.155Z,12.05
2019-05-03T09:08:28.137Z,12.06
2019-05-03T09:09:28.132Z,12.20
2019-05-03T09:10:28.135Z,12.26
2019-05-03T09:11:33.685Z,12.41
2019-05-03T09:12:29.095Z,12.45
2019-05-03T09:13:28.086Z,12.51
2019-05-03T09:14:38.799Z,12.52
2019-05-03T09:15:29.083Z,12.56
2019-05-03T09:16:28.052Z,12.42
2019-05-03T09:17:28.041Z,12.42
2019-05-03T09:18:28.034Z,12.33
2019-05-03T09:19:28.028Z,12.34
2019-05-03T09:20:28.033Z,12.45
2019-05-03T09:21:27.998Z,12.34
2019-05-03T09:22:28.002Z,12.44
2019-05-03T09:23:27.994Z,12.45
2019-05-03T09:24:27.967Z,12.54
2019-05-03T09:25:27.981Z,12.54
2019-05-03T09:26:29.481Z,12.57
2019-05-03T09:27:27.936Z,12.66
2019-05-03T09:28:29.264Z,12.78
2019-05-03T09:29:40.284Z,12.82
2019-05-03T09:30:28.928Z,12.92
2019-05-03T09:31:27.895Z,12.97
2019-05-03T09:32:27.883Z,13.00
2019-05-03T09:33:27.875Z,12.88
2019-05-03T09:34:27.861Z,12.87
2019-05-03T09:35:32.779Z,12.85
2019-05-03T09:36:28.860Z,12.78
2019-05-03T09:37:27.833Z,12.78
2019-05-03T09:38:27.819Z,12.67
2019-05-03T09:39:27.810Z,12.74
2019-05-03T09:40:27.801Z,12.59
2019-05-03T09:41:27.842Z,12.52
2019-05-03T09:42:27.781Z,12.59
2019-05-03T09:43:27.786Z,12.69
2019-05-03T09:44:27.775Z,12.87
2019-05-03T09:45:27.746Z,12.93
2019-05-03T09:46:27.760Z,13.17
2019-05-03T09:47:27.726Z,13.24
2019-05-03T09:48:27.713Z,13.27
2019-05-03T09:49:27.715Z,13.24
2019-05-03T09:50:27.717Z,13.24
2019-05-03T09:51:27.683Z,13.18
2019-05-03T09:52:27.696Z,13.02
2019-05-03T09:53:27.663Z,12.96
2019-05-03T09:54:27.650Z,13.04
2019-05-03T09:55:27.642Z,13.11
2019-05-03T09:56:27.642Z,13.27
2019-05-03T09:57:27.643Z,13.29
2019-05-03T09:58:27.610Z,13.20
2019-05-03T09:59:27.603Z,13.25
2019-05-03T10:00:27.589Z,13.24
2019-05-03T10:01:27.579Z,13.30
2019-05-03T10:02:27.590Z,13.29
2019-05-03T10:03:27.556Z,13.33
2019-05-03T10:04:27.553Z,13.43
2019-05-03T10:05:27.539Z,13.58
2019-05-03T10:06:27.539Z,13.62
2019-05-03T10:07:27.518Z,13.63
2019-05-03T10:08:27.525Z,13.69
2019-05-03T10:09:27.514Z,13.69
2019-05-03T10:10:27.493Z,13.62
2019-05-03T10:11:27.470Z,13.62
2019-05-03T10:12:27.463Z,13.58
2019-05-03T10:13:27.505Z,13.47
2019-05-03T10:14:27.439Z,13.29
2019-05-03T10:15:27.434Z,13.24
2019-05-03T10:16:27.418Z,13.25
2019-05-03T10:17:27.407Z,13.24
2019-05-03T10:18:27.419Z,13.41
2019-05-03T10:19:37.148Z,13.32
2019-05-03T10:20:28.377Z,13.49
2019-05-03T10:21:27.365Z,13.55
2019-05-03T10:22:27.356Z,13.51
2019-05-03T10:23:27.367Z,13.70
2019-05-03T10:24:27.336Z,13.63
2019-05-03T10:25:27.331Z,13.67
2019-05-03T10:26:27.312Z,13.67
2019-05-03T10:27:27.304Z,13.71
2019-05-03T10:28:27.331Z,13.62
2019-05-03T10:29:27.282Z,13.80
2019-05-03T10:30:27.274Z,13.83
2019-05-03T10:31:27.262Z,13.99
2019-05-03T10:32:27.251Z,14.02
2019-05-03T10:33:27.241Z,14.07
2019-05-03T10:34:27.251Z,14.17
2019-05-03T10:35:27.228Z,14.06
2019-05-03T10:36:27.207Z,13.99
2019-05-03T10:37:27.197Z,14.01
2019-05-03T10:38:27.185Z,14.01
2019-05-03T10:39:27.216Z,13.96
2019-05-03T10:40:27.173Z,14.02
2019-05-03T10:41:27.160Z,14.10
2019-05-03T10:42:27.141Z,14.04
2019-05-03T10:43:27.134Z,14.17
2019-05-03T10:44:27.140Z,14.31
2019-05-03T10:45:28.116Z,14.29
2019-05-03T10:46:27.109Z,14.29
2019-05-03T10:47:27.091Z,14.37
2019-05-03T10:48:27.081Z,14.31
2019-05-03T10:49:27.089Z,14.32
2019-05-03T10:50:27.060Z,14.14
2019-05-03T10:51:27.083Z,14.10
2019-05-03T10:52:27.045Z,13.96
2019-05-03T10:53:27.025Z,14.10
2019-05-03T10:54:27.032Z,13.89
2019-05-03T10:55:27.003Z,13.91
2019-05-03T10:56:27.004Z,13.94
2019-05-03T10:57:26.984Z,13.95
2019-05-03T10:58:26.974Z,13.95
2019-05-03T10:59:26.980Z,13.89
2019-05-03T11:00:50.314Z,13.81
2019-05-03T11:01:27.940Z,13.81
2019-05-03T11:02:26.930Z,13.70
2019-05-03T11:03:26.919Z,13.84
2019-05-03T11:04:26.960Z,13.76
2019-05-03T11:05:26.907Z,13.91
2019-05-03T11:06:26.894Z,13.96
2019-05-03T11:07:26.879Z,14.19
2019-05-03T11:08:26.867Z,14.21
2019-05-03T11:09:26.860Z,14.32
2019-05-03T11:10:26.865Z,14.47
2019-05-03T11:11:26.835Z,14.38
2019-05-03T11:12:27.181Z,14.37
2019-05-03T11:13:26.834Z,14.31
2019-05-03T11:14:26.803Z,14.31
2019-05-03T11:15:26.817Z,14.21
2019-05-03T11:16:26.780Z,14.19
2019-05-03T11:17:26.770Z,14.16
2019-05-03T11:18:26.759Z,14.34
2019-05-03T11:19:26.748Z,14.39
2019-05-03T11:20:29.241Z,14.50
2019-05-03T11:21:30.934Z,14.46
2019-05-03T11:22:26.717Z,14.35
2019-05-03T11:23:26.713Z,14.39
2019-05-03T11:24:27.503Z,14.47
2019-05-03T11:25:26.704Z,14.38
2019-05-03T11:26:26.674Z,14.39
2019-05-03T11:27:26.666Z,14.38
2019-05-03T11:28:26.673Z,14.52
2019-05-03T11:29:26.643Z,14.50
2019-05-03T11:30:26.651Z,14.50
2019-05-03T11:31:26.623Z,14.64
2019-05-03T11:32:26.611Z,14.62
2019-05-03T11:33:26.606Z,14.54
2019-05-03T11:34:26.589Z,14.42
2019-05-03T11:35:26.598Z,14.42
2019-05-03T11:36:26.568Z,14.43
2019-05-03T11:37:26.566Z,14.50
2019-05-03T11:38:26.554Z,14.67
2019-05-03T11:39:26.537Z,14.65
2019-05-03T11:40:26.546Z,14.67
2019-05-03T11:41:32.045Z,14.67
2019-05-03T11:42:27.503Z,14.64
2019-05-03T11:43:26.499Z,14.64
2019-05-03T11:44:26.485Z,14.60
2019-05-03T11:45:26.497Z,14.60
2019-05-03T11:46:26.462Z,14.57
2019-05-03T11:47:27.718Z,14.52
2019-05-03T11:48:26.446Z,14.52
2019-05-03T11:49:26.453Z,14.61
2019-05-03T11:50:26.449Z,14.57
2019-05-03T11:51:26.408Z,14.49
2019-05-03T11:52:26.411Z,14.37
2019-05-03T11:53:26.389Z,14.44
2019-05-03T11:54:26.401Z,14.39
2019-05-03T11:55:26.961Z,14.37
2019-05-03T11:56:26.402Z,14.56
2019-05-03T11:57:26.656Z,14.65
2019-05-03T11:58:27.336Z,14.67
2019-05-03T11:59:26.572Z,14.88
2019-05-03T12:00:26.806Z,14.90
2019-05-03T12:01:26.323Z,14.95
2019-05-03T12:02:26.300Z,14.93
2019-05-03T12:03:26.287Z,14.94
2019-05-03T12:04:26.294Z,14.87
2019-05-03T12:05:26.261Z,14.80
2019-05-03T12:06:26.272Z,14.68
2019-05-03T12:07:38.604Z,14.65
2019-05-03T12:08:27.229Z,14.56
2019-05-03T12:09:26.218Z,14.52
2019-05-03T12:10:46.245Z,14.46
2019-05-03T12:11:27.214Z,14.39
2019-05-03T12:12:26.220Z,14.37
2019-05-03T12:13:26.175Z,14.31
2019-05-03T12:14:26.164Z,14.43
2019-05-03T12:15:26.159Z,14.54
2019-05-03T12:17:06.880Z,14.56
2019-05-03T12:17:29.542Z,14.61
2019-05-03T12:18:26.860Z,14.69
2019-05-03T12:19:31.167Z,14.91
2019-05-03T12:20:28.994Z,15.11
2019-05-03T12:21:27.673Z,15.09
2019-05-03T12:22:26.843Z,15.31
2019-05-03T12:23:26.697Z,15.35
2019-05-03T12:24:26.965Z,15.45
2019-05-03T12:25:26.854Z,15.49
2019-05-03T12:26:40.440Z,15.64
2019-05-03T12:27:27.053Z,15.63
2019-05-03T12:28:26.018Z,15.54
2019-05-03T12:29:26.009Z,15.52
2019-05-03T12:30:27.745Z,15.45
2019-05-03T12:31:36.625Z,15.38
2019-05-03T12:32:26.994Z,15.42
2019-05-03T12:33:26.249Z,15.31
2019-05-03T12:34:25.953Z,15.31
2019-05-03T12:35:25.944Z,15.26
2019-05-03T12:36:25.929Z,15.28
2019-05-03T12:37:25.939Z,15.19
2019-05-03T12:38:25.910Z,15.15
2019-05-03T12:39:30.034Z,15.03
2019-05-03T12:40:25.888Z,15.13
2019-05-03T12:41:25.881Z,15.17
2019-05-03T12:42:25.892Z,15.20
2019-05-03T12:43:25.864Z,15.20
2019-05-03T12:44:25.854Z,15.21
2019-05-03T12:45:25.838Z,15.28
2019-05-03T12:46:26.305Z,15.21
2019-05-03T12:47:25.834Z,15.23
2019-05-03T12:48:25.801Z,15.13
2019-05-03T12:49:25.793Z,15.13
2019-05-03T12:50:25.781Z,14.94
2019-05-03T12:51:25.961Z,14.98
2019-05-03T12:52:26.953Z,14.86
2019-05-03T12:53:25.775Z,14.80
2019-05-03T12:54:25.739Z,14.80
2019-05-03T12:55:25.731Z,14.69
2019-05-03T12:56:32.353Z,14.71
2019-05-03T12:57:26.729Z,14.71
2019-05-03T12:58:25.713Z,14.78
2019-05-03T12:59:26.737Z,14.80
2019-05-03T13:00:25.674Z,14.86
2019-05-03T13:01:34.003Z,14.87
2019-05-03T13:02:26.651Z,14.99
2019-05-03T13:03:25.667Z,14.86
2019-05-03T13:04:25.631Z,14.83
2019-05-03T13:05:25.627Z,14.81
2019-05-03T13:06:25.610Z,14.81
2019-05-03T13:07:25.598Z,14.80